This is the latest recevied weather packets stored in our database for station/object N5XJB. If no packets are shown the sender has not sent any weather packets the latest 10 day(s).
| Time | Temp. | Humidity | Pressure | Rain* | Wind** | Luminosity | Snow |
|---|---|---|---|---|---|---|---|
| 1777475845 | 28.33° C | 76% | 1013.4 hPa | 0 mm | - | 285 W/m² | - |
| 1777475542 | 28.33° C | 76% | 1013.4 hPa | 0 mm | - | 224 W/m² | - |
| 1777475238 | 28.33° C | 76% | 1013.4 hPa | 0 mm | - | 254 W/m² | - |
| 1777474933 | 28.33° C | 76% | 1013.7 hPa | 0 mm | - | 247 W/m² | - |
| 1777474629 | 28.33° C | 76% | 1013.7 hPa | 0 mm | - | 180 W/m² | - |
| 1777474327 | 28.33° C | 74% | 1013.7 hPa | 0 mm | - | 248 W/m² | - |
| 1777474023 | 29.44° C | 74% | 1013.4 hPa | 0 mm | - | 373 W/m² | - |
| 1777473721 | 28.89° C | 74% | 1013.7 hPa | 0 mm | - | 323 W/m² | - |
| 1777473417 | 28.89° C | 74% | 1013.4 hPa | 0 mm | - | 360 W/m² | - |
| 1777473113 | 28.89° C | 75% | 1013.7 hPa | 0 mm | - | 292 W/m² | - |
| 1777472810 | 28.33° C | 77% | 1013.4 hPa | 0 mm | - | 321 W/m² | - |
| 1777472506 | 28.89° C | 76% | 1013.4 hPa | 0 mm | - | 195 W/m² | - |
| 1777472203 | 28.89° C | 75% | 1013.4 hPa | 0 mm | - | 440 W/m² | - |
| 1777471899 | 28.33° C | 76% | 1013.1 hPa | 0 mm | - | 325 W/m² | - |
| 1777471596 | 27.78° C | 79% | 1013.1 hPa | 0 mm | - | 411 W/m² | - |
| 1777471293 | 27.22° C | 81% | 1013.1 hPa | 0 mm | - | 294 W/m² | - |
| 1777470989 | 27.22° C | 81% | 1013.1 hPa | 0 mm | - | 294 W/m² | - |
| 1777470686 | 26.67° C | 82% | 1013.1 hPa | 0 mm | - | 314 W/m² | - |
| 1777470382 | 26.11° C | 86% | 1013.1 hPa | 0 mm | - | 197 W/m² | - |
| 1777470079 | 26.67° C | 86% | 1013.4 hPa | 0 mm | - | 109 W/m² | - |
| 1777469775 | 26.11° C | 86% | 1013.1 hPa | 0 mm | - | 127 W/m² | - |
| 1777469471 | 26.11° C | 87% | 1013.1 hPa | 0 mm | - | 193 W/m² | - |
| 1777469171 | 26.67° C | 86% | 1013.1 hPa | 0 mm | - | 130 W/m² | - |
| 1777468865 | 26.67° C | 87% | 1013.1 hPa | 0 mm | - | 153 W/m² | - |
| 1777468562 | 26.11° C | 87% | 1013.1 hPa | 0 mm | - | 128 W/m² | - |
* Rain latest hour (hover to see other rain measurements)
** Current wind speed in m/s (hover to see current wind gust speed)